Wilson Gdynia — 8PSA — position and weather

sailwx.info

Track history (hours):
 
Tides and Currents Weather Stations Pressure Air Temp Water Temp Dewpoint Dewpoint Depression Visibility Wind Speed Wind Dir Waves Ship Positions

Wilson Gdynia

Last reported at 2014-Sep-29 22:16 UTC. Time now 2014-Oct-02 10:26 UTC.
Position N 63°45' E 007°46'.

; draft 5.7 m.

Type: Cargo ship. MMSI: 314192000.

Date/timePositionNaut miles runAvg speedWind from/ knotsBaromVisibWave heightAir tempDewpointWater temp
2014-Sep-29 22:16N 63°45' E 007°46'6 7.8
2014-Sep-29 21:33N 63°49' E 007°55'183 3.6
2014-Sep-27 18:21N 66°17' E 012°10'4 4.8
2014-Sep-27 17:31N 66°16' E 012°20'6 6.5
2014-Sep-27 16:31N 66°15' E 012°36'8 0.2
2014-Sep-25 23:20N 66°17' E 012°56'7 9.3
2014-Sep-25 22:33N 66°24' E 012°59'37 1.0
2014-Sep-24 08:29N 66°58' E 013°32'1211.5
2014-Sep-24 07:24N 67°06' E 013°57'7 8.2
2014-Sep-24 06:33N 67°12' E 013°52'  
Track history (hours):
 
Tides and Currents Weather Stations Pressure Air Temp Water Temp Dewpoint Dewpoint Depression Visibility Wind Speed Wind Dir Waves Ship Positions

Wilson Gdynia

Last reported at 2014-Sep-29 22:16 UTC. Time now 2014-Oct-02 10:26 UTC.
Position N 63°45' E 007°46'.

; draft 5.7 m.

Type: Cargo ship. MMSI: 314192000.

Date/timePositionNaut miles runAvg speedWind from/ knotsBaromVisibWave heightAir tempDewpointWater temp
2014-Sep-29 22:16N 63°45' E 007°46'6 7.8
2014-Sep-29 21:33N 63°49' E 007°55'183 3.6
2014-Sep-27 18:21N 66°17' E 012°10'4 4.8
2014-Sep-27 17:31N 66°16' E 012°20'6 6.5
2014-Sep-27 16:31N 66°15' E 012°36'8 0.2
2014-Sep-25 23:20N 66°17' E 012°56'7 9.3
2014-Sep-25 22:33N 66°24' E 012°59'37 1.0
2014-Sep-24 08:29N 66°58' E 013°32'1211.5
2014-Sep-24 07:24N 67°06' E 013°57'7 8.2
2014-Sep-24 06:33N 67°12' E 013°52'  

Dump ship's entire track history